createdAt,value
2019-03-09T00:00:48.423Z,99791.93
2019-03-09T00:03:14.988Z,99790.52
2019-03-09T00:05:41.136Z,99795.05
2019-03-09T00:08:07.660Z,99796.42
2019-03-09T00:10:33.824Z,99794.63
2019-03-09T00:13:00.019Z,99787.86
2019-03-09T00:15:26.468Z,99778.42
2019-03-09T00:17:52.664Z,99786.10
2019-03-09T00:20:18.800Z,99784.52
2019-03-09T00:22:46.890Z,99784.28
2019-03-09T00:25:14.954Z,99785.51
2019-03-09T00:27:43.055Z,99784.61
2019-03-09T00:30:13.989Z,99778.75
2019-03-09T00:32:40.262Z,99779.72
2019-03-09T00:35:06.427Z,99771.21
2019-03-09T00:37:32.618Z,99765.02
2019-03-09T00:39:58.802Z,99771.36
2019-03-09T00:42:25.013Z,99773.57
2019-03-09T00:44:51.472Z,99769.38
2019-03-09T00:47:18.187Z,99759.88
2019-03-09T00:49:44.406Z,99751.98
2019-03-09T00:52:10.633Z,99754.00
2019-03-09T00:54:36.770Z,99757.50
2019-03-09T00:57:02.951Z,99755.38
2019-03-09T00:59:29.101Z,99753.99
2019-03-09T01:01:55.248Z,99749.27
2019-03-09T01:04:21.463Z,99747.05
2019-03-09T01:06:47.907Z,99748.09
2019-03-09T01:09:14.218Z,99737.97
2019-03-09T01:11:40.397Z,99744.16
2019-03-09T01:14:06.832Z,99741.58
2019-03-09T01:16:33.257Z,99736.34
2019-03-09T01:18:59.435Z,99735.23
2019-03-09T01:21:25.589Z,99725.23
2019-03-09T01:23:51.773Z,99720.78
2019-03-09T01:26:17.917Z,99716.33
2019-03-09T01:28:44.085Z,99715.63
2019-03-09T01:31:10.361Z,99713.97
2019-03-09T01:33:36.533Z,99709.28
2019-03-09T01:36:02.770Z,99714.22
2019-03-09T01:38:29.271Z,99712.36
2019-03-09T01:40:55.411Z,99701.27
2019-03-09T01:43:21.582Z,99707.49
2019-03-09T01:45:47.798Z,99705.01
2019-03-09T01:48:14.025Z,99706.74
2019-03-09T01:50:41.080Z,99704.27
2019-03-09T01:53:07.433Z,99703.77
2019-03-09T01:55:33.606Z,99700.48
2019-03-09T01:57:59.817Z,99706.13
2019-03-09T02:00:25.977Z,99696.45
2019-03-09T02:02:52.156Z,99701.27
2019-03-09T02:05:18.338Z,99697.53
2019-03-09T02:07:44.509Z,99688.19
2019-03-09T02:10:12.597Z,99693.16
2019-03-09T02:12:38.883Z,99680.64
2019-03-09T02:15:08.907Z,99678.55
2019-03-09T02:17:35.059Z,99675.46
2019-03-09T02:20:02.358Z,99666.89
2019-03-09T02:22:28.505Z,99657.54
2019-03-09T02:24:54.676Z,99655.89
2019-03-09T02:27:20.833Z,99652.60
2019-03-09T02:29:47.480Z,99640.57
2019-03-09T02:32:13.619Z,99628.41
2019-03-09T02:34:39.801Z,99623.47
2019-03-09T02:37:05.997Z,99611.23
2019-03-09T02:39:34.105Z,99611.23
2019-03-09T02:42:00.272Z,99607.57
2019-03-09T02:44:26.454Z,99605.05
2019-03-09T02:46:52.613Z,99607.48
2019-03-09T02:49:18.808Z,99597.39
2019-03-09T02:51:45.029Z,99599.70
2019-03-09T02:54:11.203Z,99597.23
2019-03-09T02:56:37.358Z,99599.25
2019-03-09T02:59:03.538Z,99589.16
2019-03-09T03:01:31.609Z,99585.00
2019-03-09T03:03:57.788Z,99585.32
2019-03-09T03:06:23.937Z,99592.23
2019-03-09T03:08:50.262Z,99579.52
2019-03-09T03:11:16.533Z,99575.06
2019-03-09T03:13:42.976Z,99568.81
2019-03-09T03:16:09.144Z,99559.08
2019-03-09T03:18:35.288Z,99558.92
2019-03-09T03:21:01.470Z,99546.20
2019-03-09T03:23:27.610Z,99543.69
2019-03-09T03:25:53.813Z,99541.30
2019-03-09T03:28:19.968Z,99545.50
2019-03-09T03:30:46.162Z,99536.59
2019-03-09T03:33:12.413Z,99535.36
2019-03-09T03:35:38.581Z,99528.20
2019-03-09T03:38:04.733Z,99532.77
2019-03-09T03:40:31.235Z,99525.32
2019-03-09T03:42:57.395Z,99525.64
2019-03-09T03:45:23.571Z,99518.20
2019-03-09T03:47:49.748Z,99506.83
2019-03-09T03:50:15.938Z,99494.77
2019-03-09T03:52:42.099Z,99487.86
2019-03-09T03:55:09.014Z,99483.23
2019-03-09T03:57:35.746Z,99468.37
2019-03-09T04:00:14.214Z,99473.94
2019-03-09T04:02:40.462Z,99461.88
2019-03-09T04:05:06.768Z,99464.19
2019-03-09T04:07:32.931Z,99466.48
2019-03-09T04:09:59.154Z,99468.47
2019-03-09T04:12:25.399Z,99462.34
2019-03-09T04:14:51.597Z,99454.43
2019-03-09T04:17:17.710Z,99448.70
2019-03-09T04:19:43.912Z,99437.97
2019-03-09T04:22:10.071Z,99440.77
2019-03-09T04:24:38.194Z,99433.52
2019-03-09T04:27:04.428Z,99424.02
2019-03-09T04:29:30.607Z,99424.88
2019-03-09T04:31:56.848Z,99419.94
2019-03-09T04:34:23.006Z,99412.69
2019-03-09T04:36:57.709Z,99405.97
2019-03-09T04:39:23.846Z,99406.44
2019-03-09T04:41:53.150Z,99397.88
2019-03-09T04:44:19.772Z,99389.34
2019-03-09T04:46:45.940Z,99390.17
2019-03-09T04:49:12.104Z,99371.11
2019-03-09T04:51:38.271Z,99376.05
2019-03-09T04:54:04.684Z,99363.56
2019-03-09T04:56:30.925Z,99354.34
2019-03-09T04:58:57.091Z,99347.80
2019-03-09T05:01:23.302Z,99342.03
2019-03-09T05:04:19.114Z,99347.66
2019-03-09T05:06:45.285Z,99346.97
2019-03-09T05:09:20.440Z,99342.39
2019-03-09T05:11:46.616Z,99326.95
2019-03-09T05:14:13.033Z,99314.47
2019-03-09T05:16:52.928Z,99310.25
2019-03-09T05:19:19.059Z,99305.14
2019-03-09T05:21:45.523Z,99303.04
2019-03-09T05:24:11.665Z,99296.45
2019-03-09T05:26:37.880Z,99299.94
2019-03-09T05:29:04.076Z,99297.17
2019-03-09T05:31:30.310Z,99286.96
2019-03-09T05:33:56.835Z,99288.50
2019-03-09T05:36:23.394Z,99293.80
2019-03-09T05:38:51.168Z,99292.72
2019-03-09T05:41:18.016Z,99281.88
2019-03-09T05:43:44.174Z,99288.33
2019-03-09T05:46:10.663Z,99283.11
2019-03-09T05:48:36.808Z,99271.14
2019-03-09T05:51:02.988Z,99280.56
2019-03-09T05:53:29.120Z,99261.61
2019-03-09T05:55:55.609Z,99255.55
2019-03-09T05:58:21.762Z,99259.89
2019-03-09T06:00:47.960Z,99252.85
2019-03-09T06:03:14.495Z,99267.74
2019-03-09T06:05:44.302Z,99251.91
2019-03-09T06:08:10.440Z,99244.97
2019-03-09T06:10:36.750Z,99242.80
2019-03-09T06:13:03.561Z,99239.80
2019-03-09T06:15:30.135Z,99234.48
2019-03-09T06:17:56.282Z,99226.38
2019-03-09T06:20:22.689Z,99236.38
2019-03-09T06:22:48.826Z,99233.85
2019-03-09T06:25:15.006Z,99231.66
2019-03-09T06:27:41.274Z,99226.16
2019-03-09T06:30:10.207Z,99219.67
2019-03-09T06:32:42.091Z,99221.92
2019-03-09T06:35:12.862Z,99213.14
2019-03-09T06:37:44.240Z,99211.27
2019-03-09T06:40:10.390Z,99219.28
2019-03-09T06:42:44.361Z,99214.77
2019-03-09T06:45:11.397Z,99207.14
2019-03-09T06:47:37.573Z,99202.30
2019-03-09T06:50:13.092Z,99199.94
2019-03-09T06:52:39.592Z,99208.93
2019-03-09T06:55:09.842Z,99191.78
2019-03-09T06:57:35.993Z,99202.94
2019-03-09T07:00:22.573Z,99198.95
2019-03-09T07:02:48.730Z,99189.08
2019-03-09T07:05:14.922Z,99193.86
2019-03-09T07:07:41.271Z,99190.06
2019-03-09T07:10:07.850Z,99176.11
2019-03-09T07:12:34.035Z,99180.55
2019-03-09T07:15:19.593Z,99197.70
2019-03-09T07:17:45.879Z,99186.15
2019-03-09T07:20:13.129Z,99177.06
2019-03-09T07:22:39.467Z,99152.05
2019-03-09T07:25:06.742Z,99191.03
2019-03-09T07:27:32.937Z,99183.06
2019-03-09T07:29:59.084Z,99199.48
2019-03-09T07:32:25.379Z,99209.98
2019-03-09T07:34:51.541Z,99211.93
2019-03-09T07:37:17.775Z,99210.25
2019-03-09T07:39:43.986Z,99211.03
2019-03-09T07:42:10.173Z,99178.87
2019-03-09T07:44:36.331Z,99197.34
2019-03-09T07:47:02.862Z,99190.06
2019-03-09T07:49:29.019Z,99179.34
2019-03-09T07:51:55.202Z,99177.16
2019-03-09T07:54:24.264Z,99164.83
2019-03-09T07:56:50.465Z,99171.41
2019-03-09T07:59:16.603Z,99167.95
2019-03-09T08:01:42.839Z,99157.48
2019-03-09T08:04:09.019Z,99180.59
2019-03-09T08:06:35.190Z,99166.11
2019-03-09T08:09:01.422Z,99154.06
2019-03-09T08:11:27.796Z,99154.34
2019-03-09T08:14:13.858Z,99162.87
2019-03-09T08:16:40.029Z,99186.02
2019-03-09T08:19:06.210Z,99187.86
2019-03-09T08:21:32.378Z,99154.61
2019-03-09T08:23:58.538Z,99156.91
2019-03-09T08:26:24.681Z,99152.09
2019-03-09T08:28:50.906Z,99163.36
2019-03-09T08:31:17.069Z,99170.83
2019-03-09T08:33:43.468Z,99135.62
2019-03-09T08:36:09.665Z,99154.91
2019-03-09T08:38:35.824Z,99144.98
2019-03-09T08:41:02.341Z,99159.38
2019-03-09T08:43:28.527Z,99155.39
2019-03-09T08:45:54.759Z,99192.08
2019-03-09T08:48:21.018Z,99178.33
2019-03-09T08:50:47.378Z,99173.42
2019-03-09T08:53:13.565Z,99166.24
2019-03-09T08:55:40.204Z,99196.95
2019-03-09T08:58:06.441Z,99174.56
2019-03-09T09:00:33.983Z,99166.30
2019-03-09T09:03:00.142Z,99138.28
2019-03-09T09:05:26.395Z,99146.57
2019-03-09T09:07:52.572Z,99156.03
2019-03-09T09:10:18.727Z,99158.98
2019-03-09T09:12:45.698Z,99160.60
2019-03-09T09:15:16.435Z,99157.98
2019-03-09T09:17:42.735Z,99194.23
2019-03-09T09:20:22.107Z,99177.56
2019-03-09T09:22:48.379Z,99162.02
2019-03-09T09:25:14.673Z,99141.13
2019-03-09T09:27:41.094Z,99167.83
2019-03-09T09:30:15.909Z,99173.86
2019-03-09T09:32:42.086Z,99171.31
2019-03-09T09:35:10.867Z,99200.66
2019-03-09T09:37:37.210Z,99194.81
2019-03-09T09:40:14.612Z,99155.70
2019-03-09T09:42:40.894Z,99164.92
2019-03-09T09:45:11.339Z,99176.45
2019-03-09T09:47:57.394Z,99177.86
2019-03-09T09:50:23.557Z,99179.67
2019-03-09T09:52:49.920Z,99174.79
2019-03-09T09:55:18.972Z,99189.75
2019-03-09T09:57:45.193Z,99201.63
2019-03-09T10:00:26.754Z,99194.78
2019-03-09T10:02:52.951Z,99171.63
2019-03-09T10:05:19.455Z,99197.17
2019-03-09T10:07:45.624Z,99181.11
2019-03-09T10:10:17.244Z,99196.94
2019-03-09T10:12:43.494Z,99221.75
2019-03-09T10:15:13.583Z,99207.06
2019-03-09T10:17:39.722Z,99195.25
2019-03-09T10:20:09.538Z,99204.22
2019-03-09T10:22:35.693Z,99204.02
2019-03-09T10:25:03.065Z,99209.43
2019-03-09T10:27:29.194Z,99219.19
2019-03-09T10:29:55.642Z,99225.23
2019-03-09T10:32:21.801Z,99232.71
2019-03-09T10:34:47.991Z,99233.25
2019-03-09T10:37:14.155Z,99235.03
2019-03-09T10:39:40.660Z,99243.89
2019-03-09T10:42:06.814Z,99217.16
2019-03-09T10:44:33.043Z,99223.55
2019-03-09T10:46:59.211Z,99237.14
2019-03-09T10:49:25.484Z,99247.09
2019-03-09T10:51:51.629Z,99237.97
2019-03-09T10:54:17.837Z,99249.80
2019-03-09T10:56:44.293Z,99252.42
2019-03-09T10:59:10.484Z,99216.89
2019-03-09T11:01:36.911Z,99233.22
2019-03-09T11:04:03.159Z,99240.80
2019-03-09T11:06:29.336Z,99237.88
2019-03-09T11:08:55.495Z,99234.75
2019-03-09T11:11:21.686Z,99236.81
2019-03-09T11:13:51.943Z,99241.65
2019-03-09T11:16:16.080Z,99243.52
2019-03-09T11:18:42.223Z,99237.39
2019-03-09T11:21:08.414Z,99237.52
2019-03-09T11:23:34.683Z,99235.18
2019-03-09T11:26:00.862Z,99230.18
2019-03-09T11:28:27.106Z,99233.40
2019-03-09T11:30:53.299Z,99242.16
2019-03-09T11:33:19.447Z,99227.27
2019-03-09T11:35:45.628Z,99199.61
2019-03-09T11:38:11.793Z,99224.81
2019-03-09T11:40:38.235Z,99220.61
2019-03-09T11:43:04.559Z,99225.47
2019-03-09T11:45:31.124Z,99215.34
2019-03-09T11:47:57.286Z,99207.85
2019-03-09T11:50:29.950Z,99182.64
2019-03-09T11:52:56.170Z,99211.62
2019-03-09T11:55:22.320Z,99200.02
2019-03-09T11:57:48.749Z,99200.62
2019-03-09T12:00:23.005Z,99190.84
2019-03-09T12:02:49.143Z,99214.13
2019-03-09T12:05:15.349Z,99183.00
2019-03-09T12:07:41.524Z,99225.43
2019-03-09T12:10:10.929Z,99207.60
2019-03-09T12:12:37.565Z,99193.95
2019-03-09T12:15:09.011Z,99202.91
2019-03-09T12:17:35.158Z,99214.48
2019-03-09T12:20:01.527Z,99211.61
2019-03-09T12:22:27.751Z,99210.81
2019-03-09T12:24:53.915Z,99196.09
2019-03-09T12:27:20.164Z,99213.80
2019-03-09T12:29:46.305Z,99209.32
2019-03-09T12:32:12.489Z,99216.32
2019-03-09T12:34:38.722Z,99207.94
2019-03-09T12:37:04.933Z,99232.83
2019-03-09T12:39:31.085Z,99223.41
2019-03-09T12:41:57.299Z,99211.86
2019-03-09T12:44:23.470Z,99207.46
2019-03-09T12:46:50.903Z,99211.41
2019-03-09T12:49:17.149Z,99201.19
2019-03-09T12:51:43.406Z,99193.48
2019-03-09T12:54:09.947Z,99207.53
2019-03-09T12:56:36.186Z,99223.03
2019-03-09T12:59:02.335Z,99223.06
2019-03-09T13:01:28.511Z,99219.49
2019-03-09T13:03:54.913Z,99214.75
2019-03-09T13:06:21.113Z,99225.88
2019-03-09T13:08:47.258Z,99226.38
2019-03-09T13:11:13.763Z,99227.41
2019-03-09T13:13:39.977Z,99228.25
2019-03-09T13:16:06.144Z,99227.75
2019-03-09T13:18:32.283Z,99231.59
2019-03-09T13:20:58.465Z,99215.84
2019-03-09T13:23:24.624Z,99199.13
2019-03-09T13:25:50.850Z,99199.45
2019-03-09T13:28:16.990Z,99200.48
2019-03-09T13:30:44.108Z,99193.66
2019-03-09T13:33:10.254Z,99184.22
2019-03-09T13:35:36.433Z,99193.99
2019-03-09T13:38:02.572Z,99183.73
2019-03-09T13:40:28.780Z,99174.77
2019-03-09T13:42:54.959Z,99164.67
2019-03-09T13:45:21.458Z,99173.29
2019-03-09T13:47:47.619Z,99153.58
2019-03-09T13:50:13.876Z,99169.80
2019-03-09T13:52:40.366Z,99144.97
2019-03-09T13:55:08.895Z,99134.67
2019-03-09T13:57:35.081Z,99127.91
2019-03-09T14:00:01.526Z,99118.78
2019-03-09T14:02:27.691Z,99108.01
2019-03-09T14:04:53.850Z,99102.88
2019-03-09T14:07:20.027Z,99090.64
2019-03-09T14:09:46.459Z,99099.60
2019-03-09T14:12:12.659Z,99091.31
2019-03-09T14:14:38.795Z,99101.73
2019-03-09T14:17:05.265Z,99079.05
2019-03-09T14:19:31.414Z,99090.46
2019-03-09T14:21:57.598Z,99114.16
2019-03-09T14:24:23.740Z,99106.36
2019-03-09T14:26:50.457Z,99111.84
2019-03-09T14:29:16.675Z,99118.14
2019-03-09T14:31:42.847Z,99125.95
2019-03-09T14:34:08.986Z,99122.66
2019-03-09T14:36:35.177Z,99134.08
2019-03-09T14:39:01.322Z,99132.94
2019-03-09T14:41:27.895Z,99122.70
2019-03-09T14:43:54.036Z,99133.30
2019-03-09T14:46:20.210Z,99122.69
2019-03-09T14:48:46.590Z,99125.66
2019-03-09T14:51:12.727Z,99117.09
2019-03-09T14:53:38.896Z,99110.61
2019-03-09T14:56:05.189Z,99116.25
2019-03-09T14:58:31.322Z,99111.94
2019-03-09T15:00:57.582Z,99093.89
2019-03-09T15:03:23.752Z,99093.06
2019-03-09T15:05:50.191Z,99086.95
2019-03-09T15:08:16.649Z,99078.66
2019-03-09T15:10:42.793Z,99084.13
2019-03-09T15:13:08.992Z,99080.61
2019-03-09T15:15:35.145Z,99074.01
2019-03-09T15:18:01.310Z,99066.37
2019-03-09T15:20:27.483Z,99059.74
2019-03-09T15:22:53.651Z,99059.75
2019-03-09T15:25:19.787Z,99041.53
2019-03-09T15:27:46.405Z,99060.23
2019-03-09T15:30:17.442Z,99052.27
2019-03-09T15:32:44.082Z,99043.97
2019-03-09T15:35:11.078Z,99040.48
2019-03-09T15:37:37.347Z,99049.24
2019-03-09T15:40:11.206Z,99040.61
2019-03-09T15:42:37.379Z,99037.95
2019-03-09T15:45:07.942Z,99027.33
2019-03-09T15:47:34.373Z,99026.16
2019-03-09T15:50:00.510Z,99014.35
2019-03-09T15:52:26.684Z,99002.55
2019-03-09T15:54:52.975Z,99006.66
2019-03-09T15:57:19.165Z,98985.59
2019-03-09T15:59:45.314Z,98965.66
2019-03-09T16:02:12.542Z,98976.73
2019-03-09T16:04:38.694Z,98950.55
2019-03-09T16:07:05.575Z,98944.03
2019-03-09T16:09:31.891Z,98931.10
2019-03-09T16:11:58.069Z,98908.72
2019-03-09T16:14:24.316Z,98912.05
2019-03-09T16:16:50.829Z,98896.81
2019-03-09T16:19:16.977Z,98895.52
2019-03-09T16:21:43.165Z,98880.64
2019-03-09T16:24:09.798Z,98878.20
2019-03-09T16:26:35.966Z,98882.72
2019-03-09T16:29:02.111Z,98866.55
2019-03-09T16:31:28.280Z,98859.47
2019-03-09T16:33:54.446Z,98865.46
2019-03-09T16:36:20.643Z,98886.19
2019-03-09T16:38:46.782Z,98896.50
2019-03-09T16:41:12.975Z,98896.20
2019-03-09T16:43:39.102Z,98889.60
2019-03-09T16:46:05.296Z,98878.39
2019-03-09T16:48:31.459Z,98882.22
2019-03-09T16:50:57.607Z,98874.97
2019-03-09T16:53:24.166Z,98865.56
2019-03-09T16:55:50.319Z,98874.02
2019-03-09T16:58:16.523Z,98858.14
2019-03-09T17:00:42.682Z,98862.13
2019-03-09T17:03:09.184Z,98846.91
2019-03-09T17:05:35.623Z,98829.55
2019-03-09T17:08:01.932Z,98822.63
2019-03-09T17:10:28.074Z,98824.78
2019-03-09T17:12:54.299Z,98818.02
2019-03-09T17:15:23.046Z,98841.34
2019-03-09T17:17:49.211Z,98816.02
2019-03-09T17:20:16.456Z,98797.83
2019-03-09T17:22:42.889Z,98807.42
2019-03-09T17:25:09.441Z,98797.31
2019-03-09T17:27:35.592Z,98794.34
2019-03-09T17:30:04.406Z,98793.00
2019-03-09T17:32:30.849Z,98797.64
2019-03-09T17:34:57.038Z,98796.47
2019-03-09T17:37:23.211Z,98769.33
2019-03-09T17:39:49.385Z,98787.85
2019-03-09T17:42:15.598Z,98772.45
2019-03-09T17:44:41.744Z,98765.66
2019-03-09T17:47:07.969Z,98775.22
2019-03-09T17:49:34.124Z,98762.33
2019-03-09T17:52:00.304Z,98730.86
2019-03-09T17:54:26.510Z,98702.71
2019-03-09T17:56:52.698Z,98705.84
2019-03-09T17:59:19.110Z,98698.42
2019-03-09T18:01:45.256Z,98747.63
2019-03-09T18:04:11.436Z,98727.84
2019-03-09T18:06:37.588Z,98700.21
2019-03-09T18:09:04.808Z,98743.26
2019-03-09T18:11:30.947Z,98725.59
2019-03-09T18:14:06.626Z,98728.75
2019-03-09T18:16:25.174Z,98706.60
2019-03-09T18:18:51.346Z,98707.57
2019-03-09T18:21:17.501Z,98698.16
2019-03-09T18:23:43.686Z,98671.39
2019-03-09T18:26:10.176Z,98676.05
2019-03-09T18:28:36.359Z,98705.02
2019-03-09T18:31:02.847Z,98716.95
2019-03-09T18:33:29.050Z,98693.34
2019-03-09T18:35:55.203Z,98714.03
2019-03-09T18:38:21.791Z,98734.05
2019-03-09T18:40:49.760Z,98762.84
2019-03-09T18:43:16.383Z,98776.42
2019-03-09T18:45:42.835Z,98759.45
2019-03-09T18:48:09.007Z,98729.57
2019-03-09T18:50:35.172Z,98745.95
2019-03-09T18:53:02.597Z,98745.14
2019-03-09T18:55:28.738Z,98752.11
2019-03-09T18:57:54.919Z,98749.31
2019-03-09T19:00:21.087Z,98777.08
2019-03-09T19:02:48.354Z,98807.48
2019-03-09T19:05:14.561Z,98811.11
2019-03-09T19:07:40.935Z,98834.89
2019-03-09T19:10:17.642Z,98823.00
2019-03-09T19:12:43.807Z,98837.04
2019-03-09T19:15:15.251Z,98813.13
2019-03-09T19:17:41.399Z,98817.91
2019-03-09T19:20:15.529Z,98832.42
2019-03-09T19:22:41.671Z,98819.03
2019-03-09T19:25:12.907Z,98848.20
2019-03-09T19:27:39.046Z,98846.19
2019-03-09T19:30:13.668Z,98881.93
2019-03-09T19:32:39.819Z,98878.62
2019-03-09T19:35:07.587Z,98862.44
2019-03-09T19:37:34.065Z,98875.11
2019-03-09T19:40:00.402Z,98897.50
2019-03-09T19:42:26.742Z,98889.65
2019-03-09T19:44:52.927Z,98907.73
2019-03-09T19:47:19.238Z,98900.48
2019-03-09T19:49:45.712Z,98924.19
2019-03-09T19:52:12.086Z,98939.19
2019-03-09T19:54:38.539Z,98939.16
2019-03-09T19:57:04.689Z,98946.22
2019-03-09T19:59:30.851Z,98959.70
2019-03-09T20:01:56.999Z,98984.58
2019-03-09T20:04:23.235Z,98988.34
2019-03-09T20:06:49.703Z,98999.39
2019-03-09T20:09:16.254Z,99004.50
2019-03-09T20:11:42.391Z,99019.16
2019-03-09T20:14:08.675Z,99025.28
2019-03-09T20:16:34.824Z,99063.22
2019-03-09T20:19:02.997Z,99041.29
2019-03-09T20:21:29.147Z,99055.28
2019-03-09T20:23:55.298Z,99085.11
2019-03-09T20:26:21.476Z,99110.83
2019-03-09T20:28:47.651Z,99092.34
2019-03-09T20:31:13.826Z,99073.88
2019-03-09T20:33:43.577Z,99074.88
2019-03-09T20:36:09.777Z,99085.91
2019-03-09T20:38:36.170Z,99091.88
2019-03-09T20:41:02.390Z,99081.80
2019-03-09T20:43:28.532Z,99100.25
2019-03-09T20:45:54.729Z,99114.92
2019-03-09T20:48:20.864Z,99110.47
2019-03-09T20:50:47.066Z,99109.16
2019-03-09T20:53:13.456Z,99119.55
2019-03-09T20:55:39.649Z,99117.20
2019-03-09T20:58:05.796Z,99132.70
2019-03-09T21:00:32.005Z,99124.27
2019-03-09T21:02:58.185Z,99171.22
2019-03-09T21:05:24.355Z,99157.22
2019-03-09T21:07:50.506Z,99195.23
2019-03-09T21:10:18.425Z,99192.40
2019-03-09T21:13:07.016Z,99207.55
2019-03-09T21:15:34.095Z,99196.91
2019-03-09T21:18:00.316Z,99218.14
2019-03-09T21:20:26.453Z,99199.14
2019-03-09T21:22:52.682Z,99236.84
2019-03-09T21:25:18.922Z,99254.93
2019-03-09T21:27:45.090Z,99272.20
2019-03-09T21:30:11.924Z,99280.20
2019-03-09T21:32:38.062Z,99260.55
2019-03-09T21:35:04.792Z,99252.25
2019-03-09T21:37:31.308Z,99284.13
2019-03-09T21:39:57.483Z,99297.23
2019-03-09T21:42:23.642Z,99320.39
2019-03-09T21:44:49.812Z,99310.77
2019-03-09T21:47:15.986Z,99305.11
2019-03-09T21:49:42.140Z,99319.39
2019-03-09T21:52:08.324Z,99318.66
2019-03-09T21:54:34.467Z,99341.59
2019-03-09T21:57:00.667Z,99343.83
2019-03-09T21:59:26.816Z,99359.25
2019-03-09T22:01:53.036Z,99361.32
2019-03-09T22:04:19.197Z,99358.97
2019-03-09T22:06:45.645Z,99374.85
2019-03-09T22:09:11.793Z,99357.05
2019-03-09T22:11:37.986Z,99386.88
2019-03-09T22:14:04.154Z,99370.70
2019-03-09T22:16:30.324Z,99393.05
2019-03-09T22:18:56.489Z,99398.59
2019-03-09T22:21:22.681Z,99362.69
2019-03-09T22:23:48.819Z,99408.34
2019-03-09T22:26:15.038Z,99404.39
2019-03-09T22:28:41.179Z,99428.69
2019-03-09T22:31:07.372Z,99427.00
2019-03-09T22:33:33.516Z,99420.05
2019-03-09T22:35:59.732Z,99428.87
2019-03-09T22:38:25.883Z,99432.13
2019-03-09T22:40:52.614Z,99433.73
2019-03-09T22:43:18.757Z,99438.78
2019-03-09T22:45:44.944Z,99446.46
2019-03-09T22:48:11.080Z,99446.09
2019-03-09T22:50:37.253Z,99451.84
2019-03-09T22:53:03.441Z,99450.52
2019-03-09T22:55:29.619Z,99459.19
2019-03-09T22:57:55.765Z,99459.77
2019-03-09T23:00:24.096Z,99471.92
2019-03-09T23:02:50.358Z,99463.11
2019-03-09T23:05:16.983Z,99463.56
2019-03-09T23:07:43.154Z,99467.17
2019-03-09T23:10:12.997Z,99467.78
2019-03-09T23:12:39.237Z,99486.97
2019-03-09T23:15:10.103Z,99487.03
2019-03-09T23:17:42.684Z,99490.11
2019-03-09T23:20:12.671Z,99489.73
2019-03-09T23:22:45.576Z,99485.73
2019-03-09T23:25:12.918Z,99495.70
2019-03-09T23:27:39.511Z,99505.03
2019-03-09T23:30:19.537Z,99508.43
2019-03-09T23:32:46.067Z,99506.23
2019-03-09T23:35:13.219Z,99516.54
2019-03-09T23:37:39.516Z,99516.54
2019-03-09T23:40:09.554Z,99518.67
2019-03-09T23:42:35.729Z,99528.32
2019-03-09T23:45:03.360Z,99527.33
2019-03-09T23:47:29.541Z,99523.88
2019-03-09T23:49:55.678Z,99538.33
2019-03-09T23:52:21.842Z,99532.16
2019-03-09T23:54:47.992Z,99535.27
2019-03-09T23:57:14.391Z,99519.45
2019-03-09T23:59:40.527Z,99494.29
